Time;durP1;ratioP1;P1;durP2;ratioP2;P2;SDS_P1;SDS_P2;PMS_P1;PMS_P2;Temp;Humidity;BMP_temperature;BMP_pressure;BME280_temperature;BME280_humidity;BME280_pressure;Samples;Min_cycle;Max_cycle;Signal;HPM_P1;HPM_P2
2022/05/05 00:04:16;;;;;;;10.87;9.93;;;13.90;99.90;;;;;;10495078;28;20251;-77
2022/05/05 00:09:19;;;;;;;11.30;10.37;;;13.90;99.90;;;;;;10481675;28;20236;-77
2022/05/05 00:14:27;;;;;;;10.30;9.50;;;13.90;99.90;;;;;;10504739;28;20220;-77
2022/05/05 00:19:31;;;;;;;9.60;8.90;;;13.90;99.90;;;;;;10481697;28;20200;-78
2022/05/05 00:24:34;;;;;;;10.00;9.30;;;14.00;99.90;;;;;;10484483;28;20278;-76
2022/05/05 00:29:36;;;;;;;10.10;9.30;;;14.00;99.90;;;;;;10486700;28;20200;-78
2022/05/05 00:34:38;;;;;;;9.50;8.80;;;13.90;99.90;;;;;;10491702;28;20622;-78
2022/05/05 00:39:42;;;;;;;9.50;8.70;;;14.00;99.90;;;;;;10491192;28;20235;-77
2022/05/05 00:44:44;;;;;;;10.80;9.90;;;14.00;99.90;;;;;;10500180;28;20297;-78
2022/05/05 00:49:49;;;;;;;9.13;8.43;;;14.00;99.90;;;;;;10473538;28;20243;-78
2022/05/05 00:54:52;;;;;;;9.57;8.77;;;14.00;99.90;;;;;;10483003;28;20691;-78
2022/05/05 00:59:56;;;;;;;9.27;8.67;;;14.00;99.90;;;;;;10486954;28;20209;-78
2022/05/05 01:04:58;;;;;;;9.47;8.77;;;14.00;99.90;;;;;;10486239;28;20319;-77
2022/05/05 01:10:02;;;;;;;9.80;9.10;;;14.00;99.90;;;;;;10482753;28;20236;-77
2022/05/05 01:15:05;;;;;;;10.50;9.70;;;14.00;99.90;;;;;;10483723;28;20221;-77
2022/05/05 01:20:12;;;;;;;9.10;8.50;;;14.00;99.90;;;;;;10490005;28;20200;-77
2022/05/05 01:30:35;;;;;;;10.33;9.63;;;13.90;99.90;;;;;;10493977;28;20207;-77
2022/05/05 01:35:38;;;;;;;10.77;9.97;;;14.00;99.90;;;;;;10471241;28;20220;-77
2022/05/05 01:40:41;;;;;;;10.40;9.60;;;14.00;99.90;;;;;;10474213;28;20197;-77
2022/05/05 01:45:45;;;;;;;11.20;10.43;;;14.00;99.90;;;;;;10492698;28;20274;-77
2022/05/05 01:50:48;;;;;;;11.00;10.20;;;14.00;99.90;;;;;;10485625;28;20197;-77
2022/05/05 01:55:52;;;;;;;9.97;9.07;;;14.00;99.90;;;;;;10488479;28;20228;-77
2022/05/05 02:00:55;;;;;;;10.67;9.87;;;14.00;99.90;;;;;;10486931;28;20700;-76
2022/05/05 02:05:57;;;;;;;10.13;9.47;;;14.00;99.90;;;;;;10483997;28;20295;-76
2022/05/05 02:11:06;;;;;;;10.37;9.60;;;14.10;99.90;;;;;;10486202;28;20200;-77
2022/05/05 02:16:08;;;;;;;9.50;8.87;;;14.00;99.90;;;;;;10491387;28;20225;-77
2022/05/05 02:21:11;;;;;;;9.00;8.20;;;14.00;99.90;;;;;;10485868;28;20205;-77
2022/05/05 02:26:14;;;;;;;9.90;9.20;;;14.00;99.90;;;;;;10489145;28;20242;-77
2022/05/05 02:31:16;;;;;;;10.63;9.73;;;14.00;99.90;;;;;;10488951;28;20215;-76
2022/05/05 02:41:39;;;;;;;9.20;8.60;;;14.00;99.90;;;;;;10507178;28;20271;-77
2022/05/05 02:46:41;;;;;;;9.93;9.23;;;14.00;99.90;;;;;;10491300;28;20303;-76
2022/05/05 02:51:45;;;;;;;9.37;8.67;;;13.90;99.90;;;;;;10487171;28;20283;-77
2022/05/05 02:56:48;;;;;;;8.70;8.10;;;13.90;99.90;;;;;;10488372;28;20224;-77
2022/05/05 03:01:50;;;;;;;9.47;8.80;;;13.90;99.90;;;;;;10483195;28;20235;-77
2022/05/05 03:06:53;;;;;;;9.63;9.00;;;13.80;99.90;;;;;;10494512;28;20281;-77
2022/05/05 03:11:56;;;;;;;9.80;9.00;;;13.80;99.90;;;;;;10504007;28;20282;-77
2022/05/05 03:16:58;;;;;;;10.00;9.30;;;13.70;99.90;;;;;;10498694;28;20248;-77
2022/05/05 03:22:00;;;;;;;10.13;9.33;;;13.70;99.90;;;;;;10490856;28;20258;-77
2022/05/05 03:27:05;;;;;;;11.30;10.40;;;13.60;99.90;;;;;;10499958;28;20228;-77
2022/05/05 03:32:08;;;;;;;10.70;9.90;;;13.50;99.90;;;;;;10501515;28;20645;-79
2022/05/05 03:37:10;;;;;;;11.07;10.27;;;13.50;99.90;;;;;;10481996;28;20318;-77
2022/05/05 03:42:13;;;;;;;11.47;10.47;;;13.50;99.90;;;;;;10480040;28;20202;-77
2022/05/05 03:47:16;;;;;;;11.60;10.70;;;13.50;99.90;;;;;;10489928;28;20762;-77
2022/05/05 03:52:18;;;;;;;11.63;10.73;;;13.50;99.90;;;;;;10499083;28;20343;-79
2022/05/05 03:57:21;;;;;;;11.40;10.50;;;13.50;99.90;;;;;;10493292;28;20299;-78
2022/05/05 04:02:23;;;;;;;11.63;10.83;;;13.50;99.90;;;;;;10461584;28;20197;-78
2022/05/05 04:07:25;;;;;;;12.17;11.17;;;13.60;99.90;;;;;;10493550;28;20220;-77
2022/05/05 04:12:29;;;;;;;11.80;10.90;;;13.70;99.90;;;;;;10489481;28;20736;-79
2022/05/05 04:17:31;;;;;;;12.27;11.33;;;13.70;99.90;;;;;;10499607;28;20295;-77
2022/05/05 04:22:33;;;;;;;10.53;9.83;;;13.80;99.90;;;;;;10498358;28;20235;-79
2022/05/05 04:27:37;;;;;;;11.47;10.47;;;13.80;99.90;;;;;;10480477;28;20217;-78
2022/05/05 04:32:39;;;;;;;11.83;10.40;;;13.90;99.90;;;;;;10480934;28;20235;-78
2022/05/05 04:37:42;;;;;;;10.70;9.80;;;14.00;99.90;;;;;;10491627;28;20259;-77
2022/05/05 04:42:45;;;;;;;11.33;10.43;;;14.00;99.90;;;;;;10493971;28;20278;-79
2022/05/05 04:47:47;;;;;;;11.40;10.50;;;14.10;99.90;;;;;;10481223;28;20217;-77
2022/05/05 04:52:49;;;;;;;10.43;9.73;;;14.10;99.90;;;;;;10479524;28;20729;-77
2022/05/05 04:57:53;;;;;;;12.40;11.50;;;14.20;99.90;;;;;;10483401;28;20228;-78
2022/05/05 05:02:55;;;;;;;17.03;15.50;;;14.30;99.90;;;;;;10485938;28;20301;-77
2022/05/05 05:07:57;;;;;;;19.03;17.33;;;14.40;99.90;;;;;;10490700;28;20316;-77
2022/05/05 05:13:01;;;;;;;19.17;17.57;;;14.40;99.90;;;;;;10494868;28;20630;-77
2022/05/05 05:18:03;;;;;;;19.30;17.60;;;14.50;99.90;;;;;;10478879;28;20220;-77
2022/05/05 05:23:05;;;;;;;20.40;18.50;;;14.50;99.90;;;;;;10490554;28;20223;-78
2022/05/05 05:28:09;;;;;;;17.07;15.60;;;14.60;99.90;;;;;;10492603;28;20217;-80
2022/05/05 05:33:11;;;;;;;14.23;13.23;;;14.70;99.90;;;;;;10468387;28;20197;-78
2022/05/05 05:38:13;;;;;;;16.20;14.80;;;14.80;99.90;;;;;;10524757;22;20256;-83
2022/05/05 05:43:17;;;;;;;18.37;16.57;;;14.80;99.90;;;;;;10494299;28;20728;-84
2022/05/05 05:48:19;;;;;;;20.50;18.50;;;14.90;99.90;;;;;;10495145;28;20311;-83
2022/05/05 05:53:22;;;;;;;17.73;16.23;;;14.90;99.90;;;;;;10516785;28;20207;-83
2022/05/05 05:58:25;;;;;;;18.70;16.80;;;14.90;99.90;;;;;;10561649;28;20215;-83
2022/05/05 06:08:48;;;;;;;16.97;15.47;;;15.00;99.90;;;;;;10526225;28;20215;-84
2022/05/05 06:13:52;;;;;;;18.73;17.13;;;15.10;99.90;;;;;;10545805;28;20199;-84
2022/05/05 06:18:54;;;;;;;19.80;17.80;;;15.20;99.90;;;;;;10544849;28;20291;-85
2022/05/05 06:23:56;;;;;;;15.50;14.30;;;15.30;99.90;;;;;;10518463;28;20235;-82
2022/05/05 06:29:00;;;;;;;16.33;14.93;;;15.30;99.90;;;;;;10493709;28;20250;-84
2022/05/05 06:34:02;;;;;;;16.70;15.30;;;15.40;99.90;;;;;;10503421;28;20201;-83
2022/05/05 06:39:04;;;;;;;19.33;14.23;;;15.40;99.90;;;;;;10521595;28;20569;-84
2022/05/05 06:44:08;;;;;;;16.90;15.43;;;15.50;99.90;;;;;;10517822;28;20307;-83
2022/05/05 06:49:10;;;;;;;16.63;15.23;;;15.50;99.90;;;;;;10523909;28;20196;-82
2022/05/05 06:54:12;;;;;;;16.23;14.93;;;15.60;99.90;;;;;;10514574;28;20682;-83
2022/05/05 06:59:16;;;;;;;15.07;13.73;;;15.70;99.90;;;;;;10527159;28;20241;-83
2022/05/05 07:14:58;;;;;;;13.83;12.73;;;16.00;99.90;;;;;;10497374;28;20581;-83
2022/05/05 07:20:00;;;;;;;12.40;11.20;;;16.10;99.90;;;;;;10510319;28;20296;-83
2022/05/05 07:25:04;;;;;;;13.30;12.00;;;16.20;99.90;;;;;;10531586;28;20255;-84
2022/05/05 07:30:09;;;;;;;13.67;12.50;;;16.30;99.90;;;;;;10507021;28;20200;-86
2022/05/05 07:35:11;;;;;;;11.77;10.87;;;16.40;99.90;;;;;;10532327;28;20247;-84
2022/05/05 07:40:14;;;;;;;11.20;10.20;;;16.60;99.90;;;;;;10501711;28;20222;-85
2022/05/05 07:45:18;;;;;;;12.17;11.20;;;16.70;99.90;;;;;;10507265;28;20235;-84
2022/05/05 07:50:20;;;;;;;12.17;11.00;;;16.70;99.90;;;;;;10538825;28;20203;-83
2022/05/05 07:55:23;;;;;;;11.77;10.83;;;16.80;99.90;;;;;;10505506;28;20706;-84
2022/05/05 08:00:26;;;;;;;12.83;11.83;;;16.80;99.90;;;;;;10529464;28;20204;-86
2022/05/05 08:05:28;;;;;;;13.67;12.67;;;16.80;99.90;;;;;;10535895;28;20236;-84
2022/05/05 08:10:33;;;;;;;12.73;11.67;;;16.70;99.90;;;;;;10522013;28;20200;-83
2022/05/05 08:15:37;;;;;;;13.03;12.03;;;16.70;99.90;;;;;;10518775;28;20647;-81
2022/05/05 08:20:39;;;;;;;14.13;13.00;;;16.70;99.90;;;;;;10536243;28;20663;-84
2022/05/05 08:31:04;;;;;;;14.17;12.97;;;16.70;99.90;;;;;;10520277;28;20191;-82
2022/05/05 08:36:07;;;;;;;13.93;12.80;;;16.70;99.90;;;;;;10539859;28;20227;-81
2022/05/05 08:41:12;;;;;;;14.97;13.70;;;16.80;99.90;;;;;;10540499;28;20199;-83
2022/05/05 08:46:19;;;;;;;14.67;13.47;;;17.10;99.90;;;;;;10531025;28;20255;-82
2022/05/05 08:51:24;;;;;;;15.20;13.90;;;17.30;99.90;;;;;;10546792;28;20215;-83
2022/05/05 08:56:28;;;;;;;16.23;14.87;;;17.50;99.90;;;;;;10510690;28;20220;-83
2022/05/05 09:01:39;;;;;;;16.97;15.47;;;17.70;99.90;;;;;;10502746;28;20566;-84
2022/05/05 09:06:43;;;;;;;17.83;16.33;;;17.70;99.90;;;;;;10536765;28;20311;-84
2022/05/05 09:12:04;;;;;;;19.07;17.50;;;17.80;99.90;;;;;;10546954;28;20192;-82
2022/05/05 09:17:10;;;;;;;17.90;16.40;;;17.80;99.90;;;;;;10534951;28;20204;-82
2022/05/05 09:22:14;;;;;;;18.70;17.30;;;17.80;99.90;;;;;;10519837;28;20215;-81
2022/05/05 09:27:18;;;;;;;21.93;20.13;;;17.80;99.90;;;;;;10533726;28;20302;-82
2022/05/05 09:32:29;;;;;;;20.77;19.07;;;17.60;99.90;;;;;;10509224;28;20201;-84
2022/05/05 09:37:32;;;;;;;20.07;18.37;;;17.50;99.90;;;;;;10485861;28;20239;-82
2022/05/05 09:42:39;;;;;;;21.20;19.47;;;17.30;99.90;;;;;;10505562;28;20201;-83
2022/05/05 09:47:42;;;;;;;21.57;19.77;;;17.30;99.90;;;;;;10513251;28;20228;-82
2022/05/05 09:58:08;;;;;;;21.10;19.47;;;17.20;99.90;;;;;;10517880;28;20261;-84
2022/05/05 10:08:39;;;;;;;21.83;19.87;;;17.20;99.90;;;;;;10503407;28;20303;-82
2022/05/05 10:13:42;;;;;;;20.93;19.13;;;17.30;99.90;;;;;;10530064;28;20227;-84
2022/05/05 10:18:45;;;;;;;20.80;19.00;;;17.40;99.90;;;;;;10501863;28;20250;-83
2022/05/05 10:23:58;;;;;;;22.90;21.00;;;17.50;99.90;;;;;;10530187;28;20690;-82
2022/05/05 10:29:02;;;;;;;21.37;19.57;;;17.70;99.90;;;;;;10505188;28;20206;-81
2022/05/05 10:34:07;;;;;;;22.20;20.30;;;17.80;99.90;;;;;;10490913;28;20208;-82
2022/05/05 10:39:21;;;;;;;21.47;19.47;;;17.90;99.90;;;;;;10499710;28;20235;-81
2022/05/05 10:44:25;;;;;;;22.40;20.40;;;17.90;99.90;;;;;;10495627;28;20227;-81
2022/05/05 10:49:49;;;;;;;22.17;20.30;;;18.00;99.90;;;;;;10498728;28;20215;-85
2022/05/05 10:54:56;;;;;;;25.73;23.20;;;18.00;99.90;;;;;;10492102;28;20269;-84
2022/05/05 11:00:08;;;;;;;22.70;20.70;;;18.00;99.90;;;;;;10504306;28;20204;-84
2022/05/05 11:05:26;;;;;;;23.60;21.50;;;17.90;99.90;;;;;;10493857;28;20232;-83
2022/05/05 11:10:45;;;;;;;27.30;24.87;;;17.70;99.90;;;;;;10515167;28;20207;-85
2022/05/05 11:21:33;;;;;;;25.43;23.33;;;17.40;99.90;;;;;;10502462;28;20585;-82
2022/05/05 11:26:35;;;;;;;26.03;23.83;;;17.40;99.90;;;;;;10501229;28;20277;-81
2022/05/05 11:31:37;;;;;;;28.30;26.00;;;17.40;99.90;;;;;;10521089;28;20192;-84
2022/05/05 11:36:42;;;;;;;27.60;25.20;;;17.30;99.90;;;;;;10520447;22;20634;-78
2022/05/05 11:41:44;;;;;;;28.80;26.20;;;17.30;99.90;;;;;;10500277;28;20279;-77
2022/05/05 11:46:46;;;;;;;30.67;28.00;;;17.20;99.90;;;;;;10524483;28;20311;-77
2022/05/05 11:51:51;;;;;;;30.40;27.70;;;17.00;99.90;;;;;;10528461;28;20205;-77
2022/05/05 11:56:53;;;;;;;29.80;27.20;;;17.00;99.90;;;;;;10530432;28;20298;-77
2022/05/05 12:02:00;;;;;;;32.73;29.83;;;17.00;99.90;;;;;;10532057;28;20192;-77
2022/05/05 12:07:05;;;;;;;33.30;30.17;;;17.00;99.90;;;;;;10528023;28;20711;-77
2022/05/05 12:12:16;;;;;;;34.27;31.10;;;17.00;99.90;;;;;;10523398;28;20216;-77
2022/05/05 12:17:19;;;;;;;33.50;30.30;;;16.90;99.90;;;;;;10528851;28;20227;-76
2022/05/05 12:22:52;;;;;;;34.70;31.50;;;16.80;99.90;;;;;;10530853;28;20196;-77
2022/05/05 12:28:05;;;;;;;36.47;32.70;;;16.80;99.90;;;;;;10512637;28;20228;-77
2022/05/05 12:33:12;;;;;;;34.67;31.37;;;16.90;99.90;;;;;;10526941;28;20192;-77
2022/05/05 12:38:16;;;;;;;35.00;31.90;;;17.10;99.90;;;;;;10521377;28;20224;-77
2022/05/05 12:43:21;;;;;;;35.07;31.67;;;17.10;99.90;;;;;;10529030;28;20204;-77
2022/05/05 12:48:27;;;;;;;34.03;30.63;;;17.10;99.90;;;;;;10528277;28;20234;-77
2022/05/05 13:04:14;;;;;;;30.90;27.80;;;17.90;99.90;;;;;;10502001;28;20252;-77
2022/05/05 13:09:21;;;;;;;29.07;26.13;;;18.10;99.90;;;;;;10508787;28;20202;-77
2022/05/05 13:14:24;;;;;;;27.20;24.30;;;18.10;99.90;;;;;;10495993;28;20288;-77
2022/05/05 13:19:26;;;;;;;27.60;25.07;;;18.10;99.90;;;;;;10495126;28;20737;-77
2022/05/05 13:24:29;;;;;;;27.27;24.57;;;18.20;99.90;;;;;;10502221;28;20571;-77
2022/05/05 13:29:32;;;;;;;26.97;24.43;;;18.30;99.90;;;;;;10528090;28;20616;-77
2022/05/05 13:34:35;;;;;;;24.93;22.60;;;18.30;99.90;;;;;;10532370;28;20222;-77
2022/05/05 13:39:38;;;;;;;26.07;23.37;;;18.40;99.90;;;;;;10530312;28;20580;-77
2022/05/05 13:44:40;;;;;;;25.50;23.00;;;18.40;99.90;;;;;;10527724;28;20638;-77
2022/05/05 13:49:42;;;;;;;26.00;23.50;;;18.30;99.90;;;;;;10529233;28;20261;-77
2022/05/05 13:54:46;;;;;;;25.23;22.83;;;18.20;99.90;;;;;;10531892;28;20219;-77
2022/05/05 13:59:49;;;;;;;28.53;25.73;;;18.20;99.90;;;;;;10532687;28;20200;-78
2022/05/05 14:04:51;;;;;;;26.43;23.73;;;18.20;99.90;;;;;;10534291;28;20599;-77
2022/05/05 14:15:14;;;;;;;27.20;24.60;;;17.90;99.90;;;;;;10511888;28;20211;-77
2022/05/05 14:20:16;;;;;;;26.27;23.77;;;17.90;99.90;;;;;;10530276;28;20238;-78
2022/05/05 14:25:20;;;;;;;26.93;24.20;;;17.80;99.90;;;;;;10532870;28;20262;-78
2022/05/05 14:30:23;;;;;;;26.20;23.63;;;17.80;99.90;;;;;;10534045;28;20195;-77
2022/05/05 14:35:26;;;;;;;26.53;23.97;;;17.80;99.90;;;;;;10527166;28;20227;-78
2022/05/05 14:40:29;;;;;;;26.80;24.10;;;17.90;99.90;;;;;;10529584;28;20707;-78
2022/05/05 14:45:34;;;;;;;25.87;23.07;;;18.10;99.90;;;;;;10533091;28;20585;-77
2022/05/05 14:50:36;;;;;;;27.13;24.63;;;18.20;99.90;;;;;;10537043;28;20573;-78
2022/05/05 14:55:41;;;;;;;26.93;24.33;;;18.40;99.90;;;;;;10531528;28;20218;-78
2022/05/05 15:00:44;;;;;;;24.30;22.10;;;18.50;99.90;;;;;;10542099;28;20213;-78
2022/05/05 15:05:46;;;;;;;24.13;21.93;;;18.50;99.90;;;;;;10565480;28;20212;-78
2022/05/05 15:10:49;;;;;;;26.47;23.97;;;18.60;99.90;;;;;;10536675;28;20200;-78
2022/05/05 15:15:52;;;;;;;28.80;26.10;;;18.70;99.90;;;;;;10542592;28;20684;-78
2022/05/05 15:20:54;;;;;;;30.80;27.53;;;19.10;99.90;;;;;;10537644;28;20211;-78
2022/05/05 15:25:58;;;;;;;30.80;27.80;;;19.20;99.90;;;;;;10538938;28;20231;-78
2022/05/05 15:31:04;;;;;;;30.27;27.30;;;19.10;99.90;;;;;;10533679;28;20613;-78
2022/05/05 15:36:07;;;;;;;31.60;28.40;;;19.00;99.90;;;;;;10535322;28;20219;-77
2022/05/05 15:41:11;;;;;;;32.10;28.90;;;18.90;99.90;;;;;;10539140;28;20294;-78
2022/05/05 15:46:14;;;;;;;31.00;27.77;;;18.80;99.90;;;;;;10540088;28;20216;-77
2022/05/05 15:51:17;;;;;;;28.67;25.97;;;18.70;99.90;;;;;;10536167;28;20233;-78
2022/05/05 15:56:20;;;;;;;29.37;26.43;;;18.60;99.90;;;;;;10547024;28;20645;-78
2022/05/05 16:01:23;;;;;;;29.73;26.87;;;18.40;99.90;;;;;;10539728;28;20631;-78
2022/05/05 16:06:25;;;;;;;30.70;27.70;;;18.40;99.90;;;;;;10546240;28;20218;-78
2022/05/05 16:11:29;;;;;;;31.57;28.47;;;18.40;99.90;;;;;;10531059;28;20208;-81
2022/05/05 16:16:32;;;;;;;33.90;30.60;;;18.30;99.90;;;;;;10535440;28;20221;-82
2022/05/05 16:21:35;;;;;;;32.50;29.30;;;18.20;99.90;;;;;;10525383;28;20282;-79
2022/05/05 16:31:58;;;;;;;33.03;29.97;;;18.00;99.90;;;;;;10519483;28;20562;-79
2022/05/05 16:37:04;;;;;;;35.93;32.10;;;17.90;99.90;;;;;;10525237;28;20240;-79
2022/05/05 16:42:08;;;;;;;33.43;30.17;;;17.80;99.90;;;;;;10521933;28;20628;-78
2022/05/05 16:47:11;;;;;;;35.27;31.60;;;17.70;99.90;;;;;;10523766;28;20227;-79
2022/05/05 16:52:13;;;;;;;34.03;30.63;;;17.60;99.90;;;;;;10523640;28;20196;-78
2022/05/05 16:57:19;;;;;;;31.93;29.00;;;17.40;99.90;;;;;;10500562;28;20219;-79
2022/05/05 17:02:22;;;;;;;30.87;27.77;;;17.40;99.90;;;;;;10496906;28;20272;-78
2022/05/05 17:07:25;;;;;;;30.70;27.80;;;17.30;99.90;;;;;;10509095;28;20227;-78
2022/05/05 17:12:29;;;;;;;29.27;26.47;;;17.20;99.90;;;;;;10523652;28;20295;-78
2022/05/05 17:17:31;;;;;;;29.23;26.53;;;17.20;99.90;;;;;;10514301;28;20213;-79
2022/05/05 17:22:33;;;;;;;27.23;24.63;;;17.10;99.90;;;;;;10519841;28;20201;-81
2022/05/05 17:27:37;;;;;;;26.20;23.63;;;17.00;99.90;;;;;;10485378;28;20604;-79
2022/05/05 17:32:39;;;;;;;25.90;23.07;;;17.00;99.90;;;;;;10499952;28;20199;-79
2022/05/05 17:37:41;;;;;;;25.20;22.90;;;16.90;99.90;;;;;;10539485;22;20759;-81
2022/05/05 17:42:45;;;;;;;26.13;22.50;;;16.90;99.90;;;;;;10508680;28;20208;-82
2022/05/05 17:53:12;;;;;;;24.30;21.80;;;16.80;99.90;;;;;;10515445;28;20199;-81
2022/05/05 17:58:15;;;;;;;23.67;21.40;;;16.70;99.90;;;;;;10516339;28;20246;-82
2022/05/05 18:03:17;;;;;;;23.13;20.87;;;16.60;99.90;;;;;;10520933;28;20196;-82
2022/05/05 18:08:21;;;;;;;22.83;20.60;;;16.60;99.90;;;;;;10525508;28;20711;-82
2022/05/05 18:13:29;;;;;;;22.33;19.67;;;16.50;99.90;;;;;;10524396;28;20208;-82
2022/05/05 18:18:34;;;;;;;21.70;19.70;;;16.50;99.90;;;;;;10506663;28;20240;-83
2022/05/05 18:23:40;;;;;;;22.07;19.70;;;16.40;99.90;;;;;;10504359;28;20200;-82
2022/05/05 18:28:44;;;;;;;23.20;20.80;;;16.40;99.90;;;;;;10507867;28;20234;-81
2022/05/05 18:33:46;;;;;;;22.13;19.73;;;16.30;99.90;;;;;;10491618;28;20667;-82
2022/05/05 18:38:48;;;;;;;20.70;18.60;;;16.30;99.90;;;;;;10514663;28;20224;-82
2022/05/05 18:43:52;;;;;;;20.47;18.37;;;16.30;99.90;;;;;;10507294;28;20204;-83
2022/05/05 18:48:54;;;;;;;19.83;17.93;;;16.20;99.90;;;;;;10499992;28;20228;-83
2022/05/05 18:53:56;;;;;;;18.93;17.17;;;16.20;99.90;;;;;;10478252;28;20205;-83
2022/05/05 18:59:00;;;;;;;18.67;16.93;;;16.20;99.90;;;;;;10496280;28;20223;-82
2022/05/05 19:04:05;;;;;;;20.97;18.90;;;16.10;99.90;;;;;;10477953;28;20192;-83
2022/05/05 19:09:25;;;;;;;19.53;17.43;;;16.20;99.90;;;;;;10484281;28;20251;-82
2022/05/05 19:14:29;;;;;;;21.57;17.37;;;16.10;99.90;;;;;;10498228;28;20204;-81
2022/05/05 19:19:31;;;;;;;19.33;17.40;;;16.10;99.90;;;;;;10498740;28;20266;-84
2022/05/05 19:24:33;;;;;;;19.23;17.33;;;16.10;99.90;;;;;;10482643;28;20213;-83
2022/05/05 19:29:50;;;;;;;19.13;17.30;;;16.10;99.90;;;;;;10507925;28;20587;-83
2022/05/05 19:34:52;;;;;;;20.37;18.27;;;16.00;99.90;;;;;;10499284;28;20204;-83
2022/05/05 19:39:55;;;;;;;19.57;17.77;;;16.00;99.90;;;;;;10509266;28;20192;-82
2022/05/05 19:44:58;;;;;;;19.50;17.60;;;16.00;99.90;;;;;;10475559;28;20231;-82
2022/05/05 19:50:00;;;;;;;21.60;19.50;;;15.90;99.90;;;;;;10518756;28;20220;-84
2022/05/05 19:55:03;;;;;;;20.53;18.50;;;15.90;99.90;;;;;;10525249;28;20219;-80
2022/05/05 20:10:49;;;;;;;20.40;18.50;;;15.90;99.90;;;;;;10526639;28;20206;-80
2022/05/05 20:15:53;;;;;;;20.17;18.00;;;15.90;99.90;;;;;;10520613;28;20281;-82
2022/05/05 20:20:55;;;;;;;22.33;19.93;;;15.90;99.90;;;;;;10519701;28;20352;-82
2022/05/05 20:25:57;;;;;;;20.63;18.43;;;15.90;99.90;;;;;;10515404;28;20268;-82
2022/05/05 20:31:02;;;;;;;20.40;18.23;;;15.90;99.90;;;;;;10508434;28;20303;-83
2022/05/05 20:36:05;;;;;;;19.97;18.17;;;15.90;99.90;;;;;;10520278;28;20226;-82
2022/05/05 20:41:09;;;;;;;21.67;18.80;;;15.90;99.90;;;;;;10524764;28;20625;-84
2022/05/05 20:46:13;;;;;;;20.80;18.67;;;15.90;99.90;;;;;;10504763;28;20707;-82
2022/05/05 20:51:15;;;;;;;20.70;18.50;;;15.90;99.90;;;;;;10509867;28;20756;-81
2022/05/05 20:56:17;;;;;;;20.20;17.97;;;15.90;99.90;;;;;;10509723;28;20757;-81
2022/05/05 21:01:21;;;;;;;20.53;18.37;;;15.80;99.90;;;;;;10513540;28;20294;-84
2022/05/05 21:06:23;;;;;;;20.30;18.23;;;15.80;99.90;;;;;;10518382;28;20223;-83
2022/05/05 21:11:25;;;;;;;21.33;18.57;;;15.80;99.90;;;;;;10510487;28;20230;-84
2022/05/05 21:16:28;;;;;;;20.53;18.40;;;15.80;99.90;;;;;;10510651;28;20782;-84
2022/05/05 21:26:50;;;;;;;18.50;16.90;;;15.80;99.90;;;;;;10499767;28;20261;-83
2022/05/05 21:31:54;;;;;;;19.13;17.37;;;15.80;99.90;;;;;;10525577;28;20205;-83
2022/05/05 21:36:56;;;;;;;20.27;18.17;;;15.70;99.90;;;;;;10517046;28;20278;-83
2022/05/05 21:42:00;;;;;;;18.40;16.50;;;15.70;99.90;;;;;;10531964;28;20200;-82
2022/05/05 21:47:06;;;;;;;21.10;17.30;;;15.70;99.90;;;;;;10514050;28;20224;-82
2022/05/05 21:52:08;;;;;;;19.93;17.97;;;15.70;99.90;;;;;;10503642;28;20195;-81
2022/05/05 21:57:11;;;;;;;19.20;17.30;;;15.70;99.90;;;;;;10505885;28;20215;-82
2022/05/05 22:02:16;;;;;;;22.67;17.50;;;15.70;99.90;;;;;;10509607;28;20208;-82
2022/05/05 22:07:18;;;;;;;20.90;18.70;;;15.70;99.90;;;;;;10522054;28;20633;-82
2022/05/05 22:12:20;;;;;;;18.20;16.40;;;15.60;99.90;;;;;;10505245;28;20208;-82
2022/05/05 22:17:24;;;;;;;20.57;18.47;;;15.60;99.90;;;;;;10501607;28;20252;-82
2022/05/05 22:22:26;;;;;;;21.20;19.07;;;15.60;99.90;;;;;;10490174;28;20547;-82
2022/05/05 22:27:28;;;;;;;20.73;18.67;;;15.60;99.90;;;;;;10468782;28;20243;-82
2022/05/05 22:32:32;;;;;;;20.83;18.60;;;15.60;99.90;;;;;;10492983;28;20198;-83
2022/05/05 22:37:34;;;;;;;20.70;17.73;;;15.50;99.90;;;;;;10480985;28;20708;-82
2022/05/05 22:42:36;;;;;;;19.17;17.23;;;15.50;99.90;;;;;;10525263;28;20193;-81
2022/05/05 22:47:40;;;;;;;16.97;15.27;;;15.50;99.90;;;;;;10491659;28;20284;-82
2022/05/05 22:52:42;;;;;;;19.33;17.53;;;15.50;99.90;;;;;;10503211;28;20205;-83
2022/05/05 22:57:44;;;;;;;18.13;16.20;;;15.40;99.90;;;;;;10507541;28;20203;-81
2022/05/05 23:02:48;;;;;;;20.40;16.00;;;15.40;99.90;;;;;;10530972;28;20564;-80
2022/05/05 23:07:50;;;;;;;23.37;20.50;;;15.30;99.90;;;;;;10525370;28;20605;-82
2022/05/05 23:12:55;;;;;;;21.47;19.30;;;15.30;99.90;;;;;;10520592;28;20231;-82
2022/05/05 23:17:59;;;;;;;24.27;20.10;;;15.30;99.90;;;;;;10539284;28;20513;-81
2022/05/05 23:23:02;;;;;;;23.17;20.77;;;15.40;99.90;;;;;;10546729;28;20203;-80
2022/05/05 23:28:05;;;;;;;24.17;21.33;;;15.40;99.90;;;;;;10509573;28;20240;-81
2022/05/05 23:33:08;;;;;;;24.27;20.60;;;15.30;99.90;;;;;;10524710;28;20204;-80
2022/05/05 23:38:11;;;;;;;21.90;19.80;;;15.40;99.90;;;;;;10517114;22;20321;-78
2022/05/05 23:43:13;;;;;;;23.60;20.70;;;15.40;99.90;;;;;;10490593;28;20206;-78
2022/05/05 23:48:16;;;;;;;21.07;19.07;;;15.40;99.90;;;;;;10482323;28;20767;-78
2022/05/05 23:53:18;;;;;;;21.53;19.37;;;15.40;99.90;;;;;;10494695;28;20211;-78
2022/05/05 23:58:20;;;;;;;27.43;19.87;;;15.40;99.90;;;;;;10497477;28;20219;-78
